sensor_id;sensor_type;location;lat;lon;timestamp;temperature;humidity
16384;DHT22;8301;51.440;6.610;2023-08-07T00:00:06;12.80;99.90
16384;DHT22;8301;51.440;6.610;2023-08-07T00:02:35;12.80;99.90
16384;DHT22;8301;51.440;6.610;2023-08-07T00:05:02;12.90;99.90
16384;DHT22;8301;51.440;6.610;2023-08-07T00:07:29;12.80;99.90
16384;DHT22;8301;51.440;6.610;2023-08-07T00:09:55;12.80;99.90
16384;DHT22;8301;51.440;6.610;2023-08-07T00:12:22;12.80;99.90
16384;DHT22;8301;51.440;6.610;2023-08-07T00:14:53;12.80;99.90
16384;DHT22;8301;51.440;6.610;2023-08-07T00:17:20;12.90;99.90
16384;DHT22;8301;51.440;6.610;2023-08-07T00:19:46;12.90;99.90
16384;DHT22;8301;51.440;6.610;2023-08-07T00:22:13;12.90;99.90
16384;DHT22;8301;51.440;6.610;2023-08-07T00:24:40;12.90;99.90
16384;DHT22;8301;51.440;6.610;2023-08-07T00:27:07;12.90;99.90
16384;DHT22;8301;51.440;6.610;2023-08-07T00:29:35;12.90;99.90
16384;DHT22;8301;51.440;6.610;2023-08-07T00:32:03;12.90;99.90
16384;DHT22;8301;51.440;6.610;2023-08-07T00:34:29;12.90;99.90
16384;DHT22;8301;51.440;6.610;2023-08-07T00:36:56;12.90;99.90
16384;DHT22;8301;51.440;6.610;2023-08-07T00:39:23;12.90;99.90
16384;DHT22;8301;51.440;6.610;2023-08-07T00:41:50;12.90;99.90
16384;DHT22;8301;51.440;6.610;2023-08-07T00:44:17;12.90;99.90
16384;DHT22;8301;51.440;6.610;2023-08-07T00:46:44;12.90;99.90
16384;DHT22;8301;51.440;6.610;2023-08-07T00:49:11;12.90;99.90
16384;DHT22;8301;51.440;6.610;2023-08-07T00:51:38;12.90;99.90
16384;DHT22;8301;51.440;6.610;2023-08-07T00:54:06;12.90;99.90
16384;DHT22;8301;51.440;6.610;2023-08-07T00:56:34;12.90;99.90
16384;DHT22;8301;51.440;6.610;2023-08-07T00:59:01;12.90;99.90
16384;DHT22;8301;51.440;6.610;2023-08-07T01:01:28;12.90;99.90
16384;DHT22;8301;51.440;6.610;2023-08-07T01:03:56;12.90;99.90
16384;DHT22;8301;51.440;6.610;2023-08-07T01:06:22;12.90;99.90
16384;DHT22;8301;51.440;6.610;2023-08-07T01:08:49;12.90;99.90
16384;DHT22;8301;51.440;6.610;2023-08-07T01:13:48;12.90;99.90
16384;DHT22;8301;51.440;6.610;2023-08-07T01:16:20;12.80;99.90
16384;DHT22;8301;51.440;6.610;2023-08-07T01:18:41;12.90;99.90
16384;DHT22;8301;51.440;6.610;2023-08-07T01:21:16;12.80;99.90
16384;DHT22;8301;51.440;6.610;2023-08-07T01:23:37;12.80;99.90
16384;DHT22;8301;51.440;6.610;2023-08-07T01:26:04;12.80;99.90
16384;DHT22;8301;51.440;6.610;2023-08-07T01:28:33;12.80;99.90
16384;DHT22;8301;51.440;6.610;2023-08-07T01:30:59;12.80;99.90
16384;DHT22;8301;51.440;6.610;2023-08-07T01:33:34;12.80;99.90
16384;DHT22;8301;51.440;6.610;2023-08-07T01:35:58;12.70;99.90
16384;DHT22;8301;51.440;6.610;2023-08-07T01:38:26;12.70;99.90
16384;DHT22;8301;51.440;6.610;2023-08-07T01:40:53;12.70;99.90
16384;DHT22;8301;51.440;6.610;2023-08-07T01:43:21;12.70;99.90
16384;DHT22;8301;51.440;6.610;2023-08-07T01:45:47;12.70;99.90
16384;DHT22;8301;51.440;6.610;2023-08-07T01:48:14;12.70;99.90
16384;DHT22;8301;51.440;6.610;2023-08-07T01:50:41;12.70;99.90
16384;DHT22;8301;51.440;6.610;2023-08-07T01:53:08;12.70;99.90
16384;DHT22;8301;51.440;6.610;2023-08-07T01:55:35;12.70;99.90
16384;DHT22;8301;51.440;6.610;2023-08-07T01:58:02;12.70;99.90
16384;DHT22;8301;51.440;6.610;2023-08-07T02:00:28;12.70;99.90
16384;DHT22;8301;51.440;6.610;2023-08-07T02:02:55;12.60;99.90
16384;DHT22;8301;51.440;6.610;2023-08-07T02:05:23;12.60;99.90
16384;DHT22;8301;51.440;6.610;2023-08-07T02:07:49;12.60;99.90
16384;DHT22;8301;51.440;6.610;2023-08-07T02:10:16;12.60;99.90
16384;DHT22;8301;51.440;6.610;2023-08-07T02:12:43;12.60;99.90
16384;DHT22;8301;51.440;6.610;2023-08-07T02:15:10;12.60;99.90
16384;DHT22;8301;51.440;6.610;2023-08-07T02:17:36;12.60;99.90
16384;DHT22;8301;51.440;6.610;2023-08-07T02:20:05;12.60;99.90
16384;DHT22;8301;51.440;6.610;2023-08-07T02:22:32;12.60;99.90
16384;DHT22;8301;51.440;6.610;2023-08-07T02:24:59;12.60;99.90
16384;DHT22;8301;51.440;6.610;2023-08-07T02:27:26;12.60;99.90
16384;DHT22;8301;51.440;6.610;2023-08-07T02:29:53;12.60;99.90
16384;DHT22;8301;51.440;6.610;2023-08-07T02:32:20;12.60;99.90
16384;DHT22;8301;51.440;6.610;2023-08-07T02:34:46;12.60;99.90
16384;DHT22;8301;51.440;6.610;2023-08-07T02:37:13;12.60;99.90
16384;DHT22;8301;51.440;6.610;2023-08-07T02:39:43;12.50;99.90
16384;DHT22;8301;51.440;6.610;2023-08-07T02:42:10;12.60;99.90
16384;DHT22;8301;51.440;6.610;2023-08-07T02:44:37;12.60;99.90
16384;DHT22;8301;51.440;6.610;2023-08-07T02:47:04;12.50;99.90
16384;DHT22;8301;51.440;6.610;2023-08-07T02:49:31;12.50;99.90
16384;DHT22;8301;51.440;6.610;2023-08-07T02:51:58;12.60;99.90
16384;DHT22;8301;51.440;6.610;2023-08-07T02:54:25;12.50;99.90
16384;DHT22;8301;51.440;6.610;2023-08-07T02:56:52;12.60;99.90
16384;DHT22;8301;51.440;6.610;2023-08-07T02:59:19;12.50;99.90
16384;DHT22;8301;51.440;6.610;2023-08-07T03:01:46;12.50;99.90
16384;DHT22;8301;51.440;6.610;2023-08-07T03:04:13;12.50;99.90
16384;DHT22;8301;51.440;6.610;2023-08-07T03:06:39;12.50;99.90
16384;DHT22;8301;51.440;6.610;2023-08-07T03:09:06;12.60;99.90
16384;DHT22;8301;51.440;6.610;2023-08-07T03:11:33;12.60;99.90
16384;DHT22;8301;51.440;6.610;2023-08-07T03:14:01;12.60;99.90
16384;DHT22;8301;51.440;6.610;2023-08-07T03:16:29;12.60;99.90
16384;DHT22;8301;51.440;6.610;2023-08-07T03:18:55;12.60;99.90
16384;DHT22;8301;51.440;6.610;2023-08-07T03:21:22;12.60;99.90
16384;DHT22;8301;51.440;6.610;2023-08-07T03:23:50;12.60;99.90
16384;DHT22;8301;51.440;6.610;2023-08-07T03:26:17;12.50;99.90
16384;DHT22;8301;51.440;6.610;2023-08-07T03:28:43;12.60;99.90
16384;DHT22;8301;51.440;6.610;2023-08-07T03:31:12;12.60;99.90
16384;DHT22;8301;51.440;6.610;2023-08-07T03:33:39;12.60;99.90
16384;DHT22;8301;51.440;6.610;2023-08-07T03:36:06;12.60;99.90
16384;DHT22;8301;51.440;6.610;2023-08-07T03:38:34;12.60;99.90
16384;DHT22;8301;51.440;6.610;2023-08-07T03:41:01;12.60;99.90
16384;DHT22;8301;51.440;6.610;2023-08-07T03:43:27;12.60;99.90
16384;DHT22;8301;51.440;6.610;2023-08-07T03:45:56;12.60;99.90
16384;DHT22;8301;51.440;6.610;2023-08-07T03:48:23;12.60;99.90
16384;DHT22;8301;51.440;6.610;2023-08-07T03:50:49;12.60;99.90
16384;DHT22;8301;51.440;6.610;2023-08-07T03:53:16;12.60;99.90
16384;DHT22;8301;51.440;6.610;2023-08-07T03:55:43;12.60;99.90
16384;DHT22;8301;51.440;6.610;2023-08-07T03:58:11;12.60;99.90
16384;DHT22;8301;51.440;6.610;2023-08-07T04:00:38;12.50;99.90
16384;DHT22;8301;51.440;6.610;2023-08-07T04:03:05;12.50;99.90
16384;DHT22;8301;51.440;6.610;2023-08-07T04:05:33;12.50;99.90
16384;DHT22;8301;51.440;6.610;2023-08-07T04:08:00;12.60;99.90
16384;DHT22;8301;51.440;6.610;2023-08-07T04:10:26;12.60;99.90
16384;DHT22;8301;51.440;6.610;2023-08-07T04:12:53;12.60;99.90
16384;DHT22;8301;51.440;6.610;2023-08-07T04:15:20;12.60;99.90
16384;DHT22;8301;51.440;6.610;2023-08-07T04:17:47;12.60;99.90
16384;DHT22;8301;51.440;6.610;2023-08-07T04:20:14;12.60;99.90
16384;DHT22;8301;51.440;6.610;2023-08-07T04:22:41;12.60;99.90
16384;DHT22;8301;51.440;6.610;2023-08-07T04:25:10;12.60;99.90
16384;DHT22;8301;51.440;6.610;2023-08-07T04:27:37;12.60;99.90
16384;DHT22;8301;51.440;6.610;2023-08-07T04:30:05;12.70;99.90
16384;DHT22;8301;51.440;6.610;2023-08-07T04:32:32;12.60;99.90
16384;DHT22;8301;51.440;6.610;2023-08-07T04:34:58;12.70;99.90
16384;DHT22;8301;51.440;6.610;2023-08-07T04:37:25;12.70;99.90
16384;DHT22;8301;51.440;6.610;2023-08-07T04:39:52;12.70;99.90
16384;DHT22;8301;51.440;6.610;2023-08-07T04:42:20;12.70;99.90
16384;DHT22;8301;51.440;6.610;2023-08-07T04:44:49;12.70;99.90
16384;DHT22;8301;51.440;6.610;2023-08-07T04:47:16;12.60;99.90
16384;DHT22;8301;51.440;6.610;2023-08-07T04:49:43;12.60;99.90
16384;DHT22;8301;51.440;6.610;2023-08-07T04:52:10;12.60;99.90
16384;DHT22;8301;51.440;6.610;2023-08-07T04:54:37;12.60;99.90
16384;DHT22;8301;51.440;6.610;2023-08-07T04:57:04;12.60;99.90
16384;DHT22;8301;51.440;6.610;2023-08-07T04:59:31;12.60;99.90
16384;DHT22;8301;51.440;6.610;2023-08-07T05:01:57;12.60;99.90
16384;DHT22;8301;51.440;6.610;2023-08-07T05:04:24;12.50;99.90
16384;DHT22;8301;51.440;6.610;2023-08-07T05:06:51;12.60;99.90
16384;DHT22;8301;51.440;6.610;2023-08-07T05:09:18;12.60;99.90
16384;DHT22;8301;51.440;6.610;2023-08-07T05:11:45;12.50;99.90
16384;DHT22;8301;51.440;6.610;2023-08-07T05:14:12;12.60;99.90
16384;DHT22;8301;51.440;6.610;2023-08-07T05:16:39;12.60;99.90
16384;DHT22;8301;51.440;6.610;2023-08-07T05:19:05;12.60;99.90
16384;DHT22;8301;51.440;6.610;2023-08-07T05:21:32;12.60;99.90
16384;DHT22;8301;51.440;6.610;2023-08-07T05:23:59;12.50;99.90
16384;DHT22;8301;51.440;6.610;2023-08-07T05:26:27;12.50;99.90
16384;DHT22;8301;51.440;6.610;2023-08-07T05:28:55;12.50;99.90
16384;DHT22;8301;51.440;6.610;2023-08-07T05:31:24;12.50;99.90
16384;DHT22;8301;51.440;6.610;2023-08-07T05:33:51;12.50;99.90
16384;DHT22;8301;51.440;6.610;2023-08-07T05:36:18;12.50;99.90
16384;DHT22;8301;51.440;6.610;2023-08-07T05:38:45;12.50;99.90
16384;DHT22;8301;51.440;6.610;2023-08-07T05:41:11;12.50;99.90
16384;DHT22;8301;51.440;6.610;2023-08-07T05:43:38;12.40;99.90
16384;DHT22;8301;51.440;6.610;2023-08-07T05:46:05;12.40;99.90
16384;DHT22;8301;51.440;6.610;2023-08-07T05:48:32;12.40;99.90
16384;DHT22;8301;51.440;6.610;2023-08-07T05:50:59;12.50;99.90
16384;DHT22;8301;51.440;6.610;2023-08-07T05:53:25;12.50;99.90
16384;DHT22;8301;51.440;6.610;2023-08-07T05:55:52;12.50;99.90
16384;DHT22;8301;51.440;6.610;2023-08-07T05:58:19;12.50;99.90
16384;DHT22;8301;51.440;6.610;2023-08-07T06:00:46;12.50;99.90
16384;DHT22;8301;51.440;6.610;2023-08-07T06:03:15;12.50;99.90
16384;DHT22;8301;51.440;6.610;2023-08-07T06:05:42;12.60;99.90
16384;DHT22;8301;51.440;6.610;2023-08-07T06:08:09;12.70;99.90
16384;DHT22;8301;51.440;6.610;2023-08-07T06:10:37;12.70;99.90
16384;DHT22;8301;51.440;6.610;2023-08-07T06:13:04;12.70;99.90
16384;DHT22;8301;51.440;6.610;2023-08-07T06:15:32;12.80;99.90
16384;DHT22;8301;51.440;6.610;2023-08-07T06:17:59;12.80;99.90
16384;DHT22;8301;51.440;6.610;2023-08-07T06:20:26;12.70;99.90
16384;DHT22;8301;51.440;6.610;2023-08-07T06:22:53;12.80;99.90
16384;DHT22;8301;51.440;6.610;2023-08-07T06:25:20;12.70;99.90
16384;DHT22;8301;51.440;6.610;2023-08-07T06:27:46;12.70;99.90
16384;DHT22;8301;51.440;6.610;2023-08-07T06:30:13;12.70;99.90
16384;DHT22;8301;51.440;6.610;2023-08-07T06:32:41;12.70;99.90
16384;DHT22;8301;51.440;6.610;2023-08-07T06:35:08;12.70;99.90
16384;DHT22;8301;51.440;6.610;2023-08-07T06:37:35;12.70;99.90
16384;DHT22;8301;51.440;6.610;2023-08-07T06:40:02;12.80;99.90
16384;DHT22;8301;51.440;6.610;2023-08-07T06:42:30;12.80;99.90
16384;DHT22;8301;51.440;6.610;2023-08-07T06:44:58;12.80;99.90
16384;DHT22;8301;51.440;6.610;2023-08-07T06:47:24;12.90;99.90
16384;DHT22;8301;51.440;6.610;2023-08-07T06:49:51;12.90;99.90
16384;DHT22;8301;51.440;6.610;2023-08-07T06:52:19;12.90;99.90
16384;DHT22;8301;51.440;6.610;2023-08-07T06:54:48;12.90;99.90
16384;DHT22;8301;51.440;6.610;2023-08-07T06:57:15;12.90;99.90
16384;DHT22;8301;51.440;6.610;2023-08-07T06:59:42;12.90;99.90
16384;DHT22;8301;51.440;6.610;2023-08-07T07:02:09;12.90;99.90
16384;DHT22;8301;51.440;6.610;2023-08-07T07:04:36;12.90;99.90
16384;DHT22;8301;51.440;6.610;2023-08-07T07:07:03;12.80;99.90
16384;DHT22;8301;51.440;6.610;2023-08-07T07:09:29;12.80;99.90
16384;DHT22;8301;51.440;6.610;2023-08-07T07:11:57;12.90;99.90
16384;DHT22;8301;51.440;6.610;2023-08-07T07:14:25;12.90;99.90
16384;DHT22;8301;51.440;6.610;2023-08-07T07:16:52;12.90;99.90
16384;DHT22;8301;51.440;6.610;2023-08-07T07:19:20;12.90;99.90
16384;DHT22;8301;51.440;6.610;2023-08-07T07:21:47;13.00;99.90
16384;DHT22;8301;51.440;6.610;2023-08-07T07:24:14;12.90;99.90
16384;DHT22;8301;51.440;6.610;2023-08-07T07:26:41;12.90;99.90
16384;DHT22;8301;51.440;6.610;2023-08-07T07:29:08;13.00;99.90
16384;DHT22;8301;51.440;6.610;2023-08-07T07:31:34;13.00;99.90
16384;DHT22;8301;51.440;6.610;2023-08-07T07:34:02;13.00;99.90
16384;DHT22;8301;51.440;6.610;2023-08-07T07:36:34;13.00;99.90
16384;DHT22;8301;51.440;6.610;2023-08-07T07:39:01;13.00;99.90
16384;DHT22;8301;51.440;6.610;2023-08-07T07:41:28;13.00;99.90
16384;DHT22;8301;51.440;6.610;2023-08-07T07:43:57;13.10;99.90
16384;DHT22;8301;51.440;6.610;2023-08-07T07:46:26;13.20;99.90
16384;DHT22;8301;51.440;6.610;2023-08-07T07:48:55;13.30;99.90
16384;DHT22;8301;51.440;6.610;2023-08-07T07:51:23;13.30;99.90
16384;DHT22;8301;51.440;6.610;2023-08-07T07:53:52;13.50;99.90
16384;DHT22;8301;51.440;6.610;2023-08-07T07:56:25;13.60;99.90
16384;DHT22;8301;51.440;6.610;2023-08-07T07:58:54;13.70;99.90
16384;DHT22;8301;51.440;6.610;2023-08-07T08:01:26;13.60;99.90
16384;DHT22;8301;51.440;6.610;2023-08-07T08:03:56;13.60;99.90
16384;DHT22;8301;51.440;6.610;2023-08-07T08:06:23;13.50;99.90
16384;DHT22;8301;51.440;6.610;2023-08-07T08:11:50;13.70;99.90
16384;DHT22;8301;51.440;6.610;2023-08-07T08:14:18;13.80;99.90
16384;DHT22;8301;51.440;6.610;2023-08-07T08:16:45;13.90;99.90
16384;DHT22;8301;51.440;6.610;2023-08-07T08:19:12;13.80;99.90
16384;DHT22;8301;51.440;6.610;2023-08-07T08:21:39;13.80;99.90
16384;DHT22;8301;51.440;6.610;2023-08-07T08:24:07;13.90;99.90
16384;DHT22;8301;51.440;6.610;2023-08-07T08:26:36;13.90;99.90
16384;DHT22;8301;51.440;6.610;2023-08-07T08:29:03;13.90;99.90
16384;DHT22;8301;51.440;6.610;2023-08-07T08:31:33;14.00;99.90
16384;DHT22;8301;51.440;6.610;2023-08-07T08:34:05;14.20;99.90
16384;DHT22;8301;51.440;6.610;2023-08-07T08:36:31;14.30;99.90
16384;DHT22;8301;51.440;6.610;2023-08-07T08:41:58;14.50;99.90
16384;DHT22;8301;51.440;6.610;2023-08-07T08:44:30;14.50;99.90
16384;DHT22;8301;51.440;6.610;2023-08-07T08:46:58;14.70;99.90
16384;DHT22;8301;51.440;6.610;2023-08-07T08:49:30;14.70;99.90
16384;DHT22;8301;51.440;6.610;2023-08-07T08:51:58;15.00;99.90
16384;DHT22;8301;51.440;6.610;2023-08-07T08:54:26;15.20;99.90
16384;DHT22;8301;51.440;6.610;2023-08-07T08:57:01;15.30;99.90
16384;DHT22;8301;51.440;6.610;2023-08-07T08:59:30;15.30;99.90
16384;DHT22;8301;51.440;6.610;2023-08-07T09:01:59;15.20;99.90
16384;DHT22;8301;51.440;6.610;2023-08-07T09:04:28;15.00;99.90
16384;DHT22;8301;51.440;6.610;2023-08-07T09:06:56;15.00;99.90
16384;DHT22;8301;51.440;6.610;2023-08-07T09:09:25;15.10;99.90
16384;DHT22;8301;51.440;6.610;2023-08-07T09:12:00;14.90;99.90
16384;DHT22;8301;51.440;6.610;2023-08-07T09:14:30;14.70;99.90
16384;DHT22;8301;51.440;6.610;2023-08-07T09:16:59;14.70;99.90
16384;DHT22;8301;51.440;6.610;2023-08-07T09:19:29;14.70;99.90
16384;DHT22;8301;51.440;6.610;2023-08-07T09:21:59;14.60;99.90
16384;DHT22;8301;51.440;6.610;2023-08-07T09:24:27;14.70;99.90
16384;DHT22;8301;51.440;6.610;2023-08-07T09:26:56;14.60;99.90
16384;DHT22;8301;51.440;6.610;2023-08-07T09:29:25;14.70;99.90
16384;DHT22;8301;51.440;6.610;2023-08-07T09:31:56;14.80;99.90
16384;DHT22;8301;51.440;6.610;2023-08-07T09:34:25;14.90;99.90
16384;DHT22;8301;51.440;6.610;2023-08-07T09:36:56;15.00;99.90
16384;DHT22;8301;51.440;6.610;2023-08-07T09:39:23;15.40;99.90
16384;DHT22;8301;51.440;6.610;2023-08-07T09:41:52;15.50;99.90
16384;DHT22;8301;51.440;6.610;2023-08-07T09:44:23;15.60;99.90
16384;DHT22;8301;51.440;6.610;2023-08-07T09:46:52;15.50;99.90
16384;DHT22;8301;51.440;6.610;2023-08-07T09:49:20;15.50;99.90
16384;DHT22;8301;51.440;6.610;2023-08-07T09:51:48;16.00;99.90
16384;DHT22;8301;51.440;6.610;2023-08-07T09:54:16;16.30;99.90
16384;DHT22;8301;51.440;6.610;2023-08-07T09:56:43;16.60;99.90
16384;DHT22;8301;51.440;6.610;2023-08-07T09:59:12;16.80;99.90
16384;DHT22;8301;51.440;6.610;2023-08-07T10:01:39;16.80;99.90
16384;DHT22;8301;51.440;6.610;2023-08-07T10:04:06;17.00;99.90
16384;DHT22;8301;51.440;6.610;2023-08-07T10:06:33;17.30;99.90
16384;DHT22;8301;51.440;6.610;2023-08-07T10:09:00;17.50;99.90
16384;DHT22;8301;51.440;6.610;2023-08-07T10:11:28;17.70;99.90
16384;DHT22;8301;51.440;6.610;2023-08-07T10:13:57;17.80;1.00
16384;DHT22;8301;51.440;6.610;2023-08-07T10:16:25;17.80;99.90
16384;DHT22;8301;51.440;6.610;2023-08-07T10:18:53;17.80;99.90
16384;DHT22;8301;51.440;6.610;2023-08-07T10:21:20;18.10;99.90
16384;DHT22;8301;51.440;6.610;2023-08-07T10:23:47;18.10;99.90
16384;DHT22;8301;51.440;6.610;2023-08-07T10:26:14;18.00;99.90
16384;DHT22;8301;51.440;6.610;2023-08-07T10:28:41;17.90;1.00
16384;DHT22;8301;51.440;6.610;2023-08-07T10:31:11;17.80;99.90
16384;DHT22;8301;51.440;6.610;2023-08-07T10:33:38;17.30;99.90
16384;DHT22;8301;51.440;6.610;2023-08-07T10:36:09;17.10;99.90
16384;DHT22;8301;51.440;6.610;2023-08-07T10:38:36;16.90;99.90
16384;DHT22;8301;51.440;6.610;2023-08-07T10:41:07;16.60;99.90
16384;DHT22;8301;51.440;6.610;2023-08-07T10:43:37;16.50;99.90
16384;DHT22;8301;51.440;6.610;2023-08-07T10:46:11;16.90;1.00
16384;DHT22;8301;51.440;6.610;2023-08-07T10:48:42;17.50;99.90
16384;DHT22;8301;51.440;6.610;2023-08-07T10:51:11;18.00;99.90
16384;DHT22;8301;51.440;6.610;2023-08-07T10:53:39;18.30;1.00
16384;DHT22;8301;51.440;6.610;2023-08-07T10:56:15;18.50;1.00
16384;DHT22;8301;51.440;6.610;2023-08-07T10:58:41;18.50;1.00
16384;DHT22;8301;51.440;6.610;2023-08-07T11:01:15;18.80;7.30
16384;DHT22;8301;51.440;6.610;2023-08-07T11:03:44;19.00;1.00
16384;DHT22;8301;51.440;6.610;2023-08-07T11:06:13;19.00;1.00
16384;DHT22;8301;51.440;6.610;2023-08-07T11:08:40;18.60;1.00
16384;DHT22;8301;51.440;6.610;2023-08-07T11:11:15;18.60;1.00
16384;DHT22;8301;51.440;6.610;2023-08-07T11:13:41;18.70;1.00
16384;DHT22;8301;51.440;6.610;2023-08-07T11:16:08;18.30;1.00
16384;DHT22;8301;51.440;6.610;2023-08-07T11:18:36;18.20;1.00
16384;DHT22;8301;51.440;6.610;2023-08-07T11:21:09;17.80;1.00
16384;DHT22;8301;51.440;6.610;2023-08-07T11:23:39;17.70;1.00
16384;DHT22;8301;51.440;6.610;2023-08-07T11:26:08;17.70;1.00
16384;DHT22;8301;51.440;6.610;2023-08-07T11:28:36;17.90;1.00
16384;DHT22;8301;51.440;6.610;2023-08-07T11:31:02;18.40;1.00
16384;DHT22;8301;51.440;6.610;2023-08-07T11:33:30;18.70;1.00
16384;DHT22;8301;51.440;6.610;2023-08-07T11:35:57;18.80;1.00
16384;DHT22;8301;51.440;6.610;2023-08-07T11:38:34;19.10;1.00
16384;DHT22;8301;51.440;6.610;2023-08-07T11:41:03;19.20;1.00
16384;DHT22;8301;51.440;6.610;2023-08-07T11:43:32;19.20;1.00
16384;DHT22;8301;51.440;6.610;2023-08-07T11:46:00;18.70;1.00
16384;DHT22;8301;51.440;6.610;2023-08-07T11:48:28;18.40;1.00
16384;DHT22;8301;51.440;6.610;2023-08-07T11:50:56;18.70;1.00
16384;DHT22;8301;51.440;6.610;2023-08-07T11:53:24;18.70;1.00
16384;DHT22;8301;51.440;6.610;2023-08-07T11:56:13;18.80;1.00
16384;DHT22;8301;51.440;6.610;2023-08-07T11:58:20;19.00;1.00
16384;DHT22;8301;51.440;6.610;2023-08-07T12:00:47;19.40;1.00
16384;DHT22;8301;51.440;6.610;2023-08-07T12:03:23;19.50;1.00
16384;DHT22;8301;51.440;6.610;2023-08-07T12:05:53;19.20;1.00
16384;DHT22;8301;51.440;6.610;2023-08-07T12:08:19;18.80;1.00
16384;DHT22;8301;51.440;6.610;2023-08-07T12:10:50;18.70;1.00
16384;DHT22;8301;51.440;6.610;2023-08-07T12:13:19;18.70;1.00
16384;DHT22;8301;51.440;6.610;2023-08-07T12:15:45;18.90;1.00
16384;DHT22;8301;51.440;6.610;2023-08-07T12:18:12;19.00;1.00
16384;DHT22;8301;51.440;6.610;2023-08-07T12:20:39;19.10;1.00
16384;DHT22;8301;51.440;6.610;2023-08-07T12:23:10;19.40;1.00
16384;DHT22;8301;51.440;6.610;2023-08-07T12:25:34;19.50;1.00
16384;DHT22;8301;51.440;6.610;2023-08-07T12:28:00;19.50;1.00
16384;DHT22;8301;51.440;6.610;2023-08-07T12:30:30;19.40;1.00
16384;DHT22;8301;51.440;6.610;2023-08-07T12:33:04;19.80;1.00
16384;DHT22;8301;51.440;6.610;2023-08-07T12:35:32;19.70;1.00
16384;DHT22;8301;51.440;6.610;2023-08-07T12:37:59;19.30;1.00
16384;DHT22;8301;51.440;6.610;2023-08-07T12:40:27;19.20;1.00
16384;DHT22;8301;51.440;6.610;2023-08-07T12:42:54;19.40;1.00
16384;DHT22;8301;51.440;6.610;2023-08-07T12:45:22;19.00;1.00
16384;DHT22;8301;51.440;6.610;2023-08-07T12:47:50;19.20;1.00
16384;DHT22;8301;51.440;6.610;2023-08-07T12:50:17;19.50;1.00
16384;DHT22;8301;51.440;6.610;2023-08-07T12:52:44;19.60;1.00
16384;DHT22;8301;51.440;6.610;2023-08-07T12:55:12;19.80;1.00
16384;DHT22;8301;51.440;6.610;2023-08-07T12:57:42;19.50;1.00
16384;DHT22;8301;51.440;6.610;2023-08-07T13:00:09;19.60;1.00
16384;DHT22;8301;51.440;6.610;2023-08-07T13:02:46;19.90;1.00
16384;DHT22;8301;51.440;6.610;2023-08-07T13:05:08;20.40;1.00
16384;DHT22;8301;51.440;6.610;2023-08-07T13:07:36;20.20;1.00
16384;DHT22;8301;51.440;6.610;2023-08-07T13:10:07;20.50;1.00
16384;DHT22;8301;51.440;6.610;2023-08-07T13:12:34;20.70;1.00
16384;DHT22;8301;51.440;6.610;2023-08-07T13:15:02;20.60;1.00
16384;DHT22;8301;51.440;6.610;2023-08-07T13:17:29;20.50;1.00
16384;DHT22;8301;51.440;6.610;2023-08-07T13:19:56;20.50;1.00
16384;DHT22;8301;51.440;6.610;2023-08-07T13:22:23;20.10;1.00
16384;DHT22;8301;51.440;6.610;2023-08-07T13:24:49;20.20;1.00
16384;DHT22;8301;51.440;6.610;2023-08-07T13:27:16;20.50;1.00
16384;DHT22;8301;51.440;6.610;2023-08-07T13:29:43;20.70;1.00
16384;DHT22;8301;51.440;6.610;2023-08-07T13:32:10;21.00;1.00
16384;DHT22;8301;51.440;6.610;2023-08-07T13:34:38;20.80;1.00
16384;DHT22;8301;51.440;6.610;2023-08-07T13:37:07;20.70;1.00
16384;DHT22;8301;51.440;6.610;2023-08-07T13:39:34;20.40;1.00
16384;DHT22;8301;51.440;6.610;2023-08-07T13:42:01;20.20;1.00
16384;DHT22;8301;51.440;6.610;2023-08-07T13:44:28;20.00;1.00
16384;DHT22;8301;51.440;6.610;2023-08-07T13:49:24;20.60;1.00
16384;DHT22;8301;51.440;6.610;2023-08-07T13:51:51;21.00;1.00
16384;DHT22;8301;51.440;6.610;2023-08-07T13:54:18;21.10;1.00
16384;DHT22;8301;51.440;6.610;2023-08-07T13:56:45;20.80;1.00
16384;DHT22;8301;51.440;6.610;2023-08-07T13:59:15;20.50;1.00
16384;DHT22;8301;51.440;6.610;2023-08-07T14:01:41;20.20;1.00
16384;DHT22;8301;51.440;6.610;2023-08-07T14:04:08;20.30;1.00
16384;DHT22;8301;51.440;6.610;2023-08-07T14:06:35;20.60;1.00
16384;DHT22;8301;51.440;6.610;2023-08-07T14:09:03;20.50;1.00
16384;DHT22;8301;51.440;6.610;2023-08-07T14:11:30;20.10;1.00
16384;DHT22;8301;51.440;6.610;2023-08-07T14:13:57;20.20;1.00
16384;DHT22;8301;51.440;6.610;2023-08-07T14:16:24;20.60;1.00
16384;DHT22;8301;51.440;6.610;2023-08-07T14:18:51;20.70;1.00
16384;DHT22;8301;51.440;6.610;2023-08-07T14:21:18;20.80;1.00
16384;DHT22;8301;51.440;6.610;2023-08-07T14:23:46;20.70;1.00
16384;DHT22;8301;51.440;6.610;2023-08-07T14:26:14;20.60;1.00
16384;DHT22;8301;51.440;6.610;2023-08-07T14:28:40;20.80;1.00
16384;DHT22;8301;51.440;6.610;2023-08-07T14:31:08;21.00;1.00
16384;DHT22;8301;51.440;6.610;2023-08-07T14:33:36;20.80;1.00
16384;DHT22;8301;51.440;6.610;2023-08-07T14:36:04;20.80;1.00
16384;DHT22;8301;51.440;6.610;2023-08-07T14:38:31;21.00;1.00
16384;DHT22;8301;51.440;6.610;2023-08-07T14:40:58;20.90;1.00
16384;DHT22;8301;51.440;6.610;2023-08-07T14:43:31;20.50;1.00
16384;DHT22;8301;51.440;6.610;2023-08-07T14:45:58;20.30;1.00
16384;DHT22;8301;51.440;6.610;2023-08-07T14:48:25;20.60;1.00
16384;DHT22;8301;51.440;6.610;2023-08-07T14:50:54;20.10;1.00
16384;DHT22;8301;51.440;6.610;2023-08-07T14:53:22;19.60;1.00
16384;DHT22;8301;51.440;6.610;2023-08-07T14:55:48;19.40;1.00
16384;DHT22;8301;51.440;6.610;2023-08-07T14:58:15;19.40;1.00
16384;DHT22;8301;51.440;6.610;2023-08-07T15:00:42;19.50;1.00
16384;DHT22;8301;51.440;6.610;2023-08-07T15:03:10;19.60;1.00
16384;DHT22;8301;51.440;6.610;2023-08-07T15:05:37;19.90;1.00
16384;DHT22;8301;51.440;6.610;2023-08-07T15:08:04;19.90;1.00
16384;DHT22;8301;51.440;6.610;2023-08-07T15:10:30;20.00;1.00
16384;DHT22;8301;51.440;6.610;2023-08-07T15:12:57;19.70;1.00
16384;DHT22;8301;51.440;6.610;2023-08-07T15:15:25;19.50;1.00
16384;DHT22;8301;51.440;6.610;2023-08-07T15:17:51;19.50;1.00
16384;DHT22;8301;51.440;6.610;2023-08-07T15:20:21;19.40;1.00
16384;DHT22;8301;51.440;6.610;2023-08-07T15:22:53;19.20;1.00
16384;DHT22;8301;51.440;6.610;2023-08-07T15:25:23;18.90;1.00
16384;DHT22;8301;51.440;6.610;2023-08-07T15:27:49;18.80;1.00
16384;DHT22;8301;51.440;6.610;2023-08-07T15:30:17;19.20;1.00
16384;DHT22;8301;51.440;6.610;2023-08-07T15:32:44;19.20;1.00
16384;DHT22;8301;51.440;6.610;2023-08-07T15:35:11;19.10;1.00
16384;DHT22;8301;51.440;6.610;2023-08-07T15:37:38;18.60;1.00
16384;DHT22;8301;51.440;6.610;2023-08-07T15:40:06;18.50;1.00
16384;DHT22;8301;51.440;6.610;2023-08-07T15:42:34;18.40;1.00
16384;DHT22;8301;51.440;6.610;2023-08-07T15:45:01;18.40;1.00
16384;DHT22;8301;51.440;6.610;2023-08-07T15:47:29;18.40;1.00
16384;DHT22;8301;51.440;6.610;2023-08-07T15:49:56;18.60;1.00
16384;DHT22;8301;51.440;6.610;2023-08-07T15:52:23;19.00;1.00
16384;DHT22;8301;51.440;6.610;2023-08-07T15:54:53;18.90;1.00
16384;DHT22;8301;51.440;6.610;2023-08-07T15:57:19;18.80;1.00
16384;DHT22;8301;51.440;6.610;2023-08-07T15:59:46;18.90;1.00
16384;DHT22;8301;51.440;6.610;2023-08-07T16:02:13;18.70;1.00
16384;DHT22;8301;51.440;6.610;2023-08-07T16:04:41;18.80;1.00